Time;durP1;ratioP1;P1;durP2;ratioP2;P2;SDS_P1;SDS_P2;PMS_P1;PMS_P2;Temp;Humidity;BMP_temperature;BMP_pressure;BME280_temperature;BME280_humidity;BME280_pressure;Samples;Min_cycle;Max_cycle;Signal;HPM_P1;HPM_P2
2021/03/12 00:00:45;;;;;;;46.55;30.02;;;7.70;99.90;;;7.08;88.92;100427.00;5027171;28;20045;-46
2021/03/12 00:03:15;;;;;;;50.80;30.83;;;7.70;99.90;;;7.03;89.41;100436.09;5027726;28;20025;-48
2021/03/12 00:05:50;;;;;;;47.58;29.85;;;7.60;99.90;;;6.98;90.06;100439.03;5027019;28;20441;-47
2021/03/12 00:08:17;;;;;;;49.70;28.92;;;7.60;99.90;;;6.98;89.58;100437.28;5027010;28;20044;-49
2021/03/12 00:10:44;;;;;;;42.78;28.15;;;7.60;99.90;;;7.02;89.81;100437.03;5027011;28;20041;-49
2021/03/12 00:13:11;;;;;;;47.92;29.60;;;7.60;99.90;;;7.06;89.46;100436.66;5028054;28;20038;-48
2021/03/12 00:15:37;;;;;;;46.50;30.20;;;7.60;99.90;;;7.06;89.33;100441.03;5032524;28;20088;-46
2021/03/12 00:18:04;;;;;;;47.83;29.65;;;7.60;99.90;;;7.02;89.33;100437.84;5047981;28;20567;-49
2021/03/12 00:20:39;;;;;;;44.67;29.83;;;7.60;99.90;;;6.99;90.02;100436.34;5036691;28;20478;-51
2021/03/12 00:23:06;;;;;;;44.63;29.92;;;7.60;99.90;;;7.02;89.99;100439.63;5015121;28;20041;-48
2021/03/12 00:25:42;;;;;;;44.63;30.83;;;7.60;99.90;;;7.01;89.99;100445.75;5028266;28;20037;-50
2021/03/12 00:28:09;;;;;;;49.78;30.38;;;7.60;99.90;;;6.96;90.22;100440.94;5026899;28;20575;-45
2021/03/12 00:30:37;;;;;;;53.10;33.45;;;7.50;99.90;;;6.93;90.45;100452.34;5026848;28;20041;-50
2021/03/12 00:33:04;;;;;;;55.80;30.60;;;7.50;99.90;;;6.90;90.84;100447.41;5027874;28;20504;-46
2021/03/12 00:35:32;;;;;;;44.17;29.30;;;7.50;99.90;;;6.94;90.29;100446.22;5027134;28;20057;-46
2021/03/12 00:37:58;;;;;;;45.38;28.75;;;7.50;99.90;;;6.97;90.72;100456.34;5027828;28;20064;-48
2021/03/12 00:40:45;;;;;;;53.33;32.95;;;7.50;99.90;;;6.96;91.29;100466.84;5042060;28;20081;-46
2021/03/12 00:43:12;;;;;;;45.25;29.83;;;7.60;99.90;;;6.92;90.44;100466.25;5027904;28;20523;-51
2021/03/12 00:45:42;;;;;;;56.50;35.38;;;7.50;99.90;;;6.94;90.80;100464.38;5032117;28;20044;-46
2021/03/12 00:48:08;;;;;;;47.13;31.23;;;7.50;99.90;;;6.96;90.23;100456.47;5047569;28;20045;-50
2021/03/12 00:50:37;;;;;;;49.33;30.77;;;7.50;99.90;;;7.01;90.39;100453.53;5032013;28;20088;-50
2021/03/12 00:53:04;;;;;;;50.17;31.65;;;7.50;99.90;;;7.01;90.09;100445.75;5026825;28;20116;-48
2021/03/12 00:55:31;;;;;;;53.25;30.73;;;7.50;99.90;;;6.96;89.84;100452.13;5029762;28;20131;-47
2021/03/12 00:57:57;;;;;;;47.08;28.83;;;7.50;99.90;;;7.00;89.92;100439.75;5030274;28;20029;-50
2021/03/12 01:00:29;;;;;;;46.38;29.80;;;7.50;99.90;;;7.05;90.23;100435.03;5030317;28;20154;-46
2021/03/12 01:02:55;;;;;;;42.78;28.35;;;7.60;99.90;;;7.05;89.63;100423.84;5030525;28;20113;-47
2021/03/12 01:05:22;;;;;;;46.28;28.27;;;7.60;99.90;;;7.04;90.28;100429.97;5030084;28;20034;-48
2021/03/12 01:07:48;;;;;;;42.22;27.95;;;7.60;99.90;;;7.08;89.56;100423.59;5029031;28;20116;-46
2021/03/12 01:10:16;;;;;;;37.85;26.67;;;7.60;99.90;;;7.09;89.70;100425.25;5030240;28;20040;-50
2021/03/12 01:12:42;;;;;;;39.53;26.33;;;7.60;99.90;;;7.02;89.75;100418.91;5029736;28;20046;-44
2021/03/12 01:15:13;;;;;;;44.35;25.27;;;7.60;99.90;;;6.99;90.09;100417.38;5031145;28;20052;-46
2021/03/12 01:17:39;;;;;;;36.88;24.67;;;7.50;99.90;;;6.95;89.51;100427.16;5030550;28;20038;-49
2021/03/12 01:20:17;;;;;;;38.85;27.02;;;7.50;99.90;;;6.94;90.38;100422.09;5032410;28;20029;-46
2021/03/12 01:22:44;;;;;;;36.90;25.80;;;7.50;99.90;;;6.94;91.28;100428.09;5032694;28;20076;-47
2021/03/12 01:25:15;;;;;;;35.55;25.15;;;7.50;99.90;;;6.96;90.66;100422.81;5010979;28;20034;-47
2021/03/12 01:27:41;;;;;;;40.17;26.73;;;7.50;99.90;;;6.96;90.57;100428.81;5013688;28;20041;-46
2021/03/12 01:30:20;;;;;;;40.13;27.05;;;7.50;99.90;;;6.98;90.77;100416.56;5029780;28;20061;-46
2021/03/12 01:32:46;;;;;;;40.08;27.90;;;7.50;99.90;;;6.98;90.38;100424.31;5030166;28;20180;-49
2021/03/12 01:35:13;;;;;;;47.05;29.25;;;7.50;99.90;;;7.04;90.76;100417.00;5029742;28;20049;-49
2021/03/12 01:37:39;;;;;;;46.47;29.08;;;7.50;99.90;;;7.04;90.32;100402.28;5029340;28;20044;-51
2021/03/12 01:40:10;;;;;;;45.83;30.73;;;7.60;99.90;;;7.06;90.94;100399.56;5030689;28;20038;-53
2021/03/12 01:42:35;;;;;;;41.83;27.85;;;7.60;99.90;;;7.06;90.85;100399.56;5029322;28;20117;-53
2021/03/12 01:45:10;;;;;;;39.55;27.30;;;7.60;99.90;;;7.06;90.64;100395.22;5030441;28;20033;-49
2021/03/12 01:47:36;;;;;;;38.08;26.52;;;7.60;99.90;;;7.09;90.38;100394.16;5028105;28;20029;-51
2021/03/12 01:50:05;;;;;;;44.80;29.08;;;7.60;99.90;;;7.08;90.60;100393.31;5029090;28;20497;-47
2021/03/12 01:52:32;;;;;;;48.17;30.92;;;7.60;99.90;;;7.05;90.76;100392.75;5028310;28;20057;-47
2021/03/12 01:54:58;;;;;;;41.13;28.00;;;7.60;99.90;;;7.05;91.22;100400.53;5029328;28;20038;-49
2021/03/12 01:57:24;;;;;;;39.63;27.13;;;7.60;99.90;;;7.06;90.98;100399.56;5029391;28;20680;-49
2021/03/12 01:59:50;;;;;;;36.85;25.80;;;7.70;99.90;;;7.03;91.12;100397.22;5030132;28;20037;-50
2021/03/12 02:02:17;;;;;;;37.70;26.38;;;7.60;99.90;;;7.01;91.45;100389.59;5029488;28;20132;-52
2021/03/12 02:04:43;;;;;;;38.80;25.67;;;7.60;99.90;;;7.00;91.73;100387.94;5026840;28;20037;-51
2021/03/12 02:07:09;;;;;;;37.17;26.17;;;7.60;99.90;;;6.99;91.49;100387.13;5029748;28;20473;-52
2021/03/12 02:09:36;;;;;;;33.22;25.20;;;7.50;99.90;;;6.97;91.47;100376.06;5027623;28;20374;-48
2021/03/12 02:12:25;;;;;;;33.08;25.50;;;7.50;99.90;;;6.97;92.08;100367.47;5030140;28;20357;-48
2021/03/12 02:15:08;;;;;;;35.58;25.35;;;7.50;99.90;;;6.96;91.25;100364.03;5007598;28;20248;-48
2021/03/12 02:18:02;;;;;;;36.00;25.83;;;7.50;99.90;;;6.90;91.52;100358.53;4992605;28;20034;-47
2021/03/12 02:20:54;;;;;;;39.10;27.10;;;7.40;99.90;;;6.86;91.42;100354.53;5013071;28;20042;-47
2021/03/12 02:24:24;;;;;;;43.28;28.48;;;7.40;99.90;;;6.80;91.55;100361.03;5013561;28;20540;-49
2021/03/12 02:27:20;;;;;;;38.75;26.33;;;7.40;99.90;;;6.73;91.02;100357.28;5023306;28;20064;-52
2021/03/12 02:29:58;;;;;;;41.40;24.50;;;7.30;99.90;;;6.65;91.56;100349.31;5010633;28;20095;-45
2021/03/12 02:32:35;;;;;;;38.97;25.00;;;7.20;99.90;;;6.58;92.30;100336.06;5013066;28;20087;-50
2021/03/12 02:35:08;;;;;;;43.47;26.83;;;7.20;99.90;;;6.57;91.97;100337.00;5027451;28;20034;-51
2021/03/12 02:37:36;;;;;;;39.13;25.73;;;7.20;99.90;;;6.59;91.56;100339.47;5012369;28;20187;-53
2021/03/12 02:40:08;;;;;;;29.77;19.42;;;7.10;99.90;;;6.58;92.78;100333.47;5007050;28;20040;-50
2021/03/12 02:42:36;;;;;;;33.83;21.77;;;7.20;99.90;;;6.60;91.88;100341.13;4992077;28;20073;-52
2021/03/12 02:45:05;;;;;;;44.78;26.63;;;7.10;99.90;;;6.62;91.45;100342.59;5025875;28;20101;-47
2021/03/12 02:47:32;;;;;;;36.10;26.13;;;7.20;99.90;;;6.62;91.06;100339.19;5011219;28;20065;-48
2021/03/12 02:49:59;;;;;;;39.80;24.70;;;7.20;99.90;;;6.63;91.55;100330.47;5027856;28;20052;-50
2021/03/12 02:52:27;;;;;;;34.97;24.13;;;7.20;99.90;;;6.63;91.33;100340.84;5029178;28;20041;-53
2021/03/12 02:54:53;;;;;;;30.25;21.27;;;7.20;99.90;;;6.61;91.46;100330.63;5005552;28;20389;-51
2021/03/12 02:57:24;;;;;;;34.15;22.65;;;7.20;99.90;;;6.65;91.49;100320.81;5003142;28;20025;-52
2021/03/12 02:59:55;;;;;;;29.23;20.65;;;7.20;99.90;;;6.64;91.98;100329.53;5048865;28;20036;-50
2021/03/12 03:02:28;;;;;;;26.48;19.10;;;7.20;99.90;;;6.64;91.21;100326.94;5041426;28;20346;-50
2021/03/12 03:04:57;;;;;;;26.02;18.73;;;7.20;99.90;;;6.62;91.67;100318.47;5026885;28;20056;-45
2021/03/12 03:07:26;;;;;;;27.65;19.48;;;7.20;99.90;;;6.62;91.20;100310.72;5028788;28;20030;-49
2021/03/12 03:09:53;;;;;;;29.00;19.40;;;7.20;99.90;;;6.61;91.37;100307.34;5101860;23;20071;-48
2021/03/12 03:12:24;;;;;;;29.95;20.48;;;7.10;99.90;;;6.62;91.53;100302.94;4968719;28;20576;-46
2021/03/12 03:14:57;;;;;;;28.02;20.15;;;7.10;99.90;;;6.66;91.51;100306.94;4969360;28;20486;-49
2021/03/12 03:17:23;;;;;;;31.90;20.50;;;7.20;99.90;;;6.67;91.48;100303.41;4969532;28;20101;-49
2021/03/12 03:19:51;;;;;;;32.65;21.45;;;7.20;99.90;;;6.73;91.69;100309.84;4965764;28;20138;-52
2021/03/12 03:22:18;;;;;;;32.95;22.95;;;7.20;99.90;;;6.76;91.27;100304.44;4965907;28;20463;-49
2021/03/12 03:24:44;;;;;;;37.47;25.52;;;7.30;99.90;;;6.81;91.85;100313.47;4964564;28;20031;-47
2021/03/12 03:27:11;;;;;;;36.30;24.05;;;7.30;99.90;;;6.85;92.12;100314.88;4950570;28;20047;-47
2021/03/12 03:29:38;;;;;;;35.28;25.25;;;7.30;99.90;;;6.88;91.66;100319.81;4956952;28;20046;-50
2021/03/12 03:32:06;;;;;;;37.05;25.60;;;7.40;99.90;;;6.90;91.86;100311.91;4969747;28;20164;-50
2021/03/12 03:34:33;;;;;;;35.60;25.70;;;7.40;99.90;;;6.93;91.66;100307.31;4967694;28;20482;-47
2021/03/12 03:36:59;;;;;;;34.00;25.27;;;7.50;99.90;;;6.94;91.99;100314.13;4969661;28;20117;-48
2021/03/12 03:39:25;;;;;;;34.60;24.75;;;7.50;99.90;;;6.94;92.69;100306.38;4968662;28;20039;-47
2021/03/12 03:41:54;;;;;;;35.70;24.20;;;7.50;99.90;;;6.96;92.44;100311.44;4969955;28;20047;-45
2021/03/12 03:44:25;;;;;;;32.15;24.00;;;7.50;99.90;;;6.97;92.63;100319.06;4968915;28;20354;-45
2021/03/12 03:46:55;;;;;;;29.60;20.35;;;7.50;99.90;;;6.94;92.29;100323.69;4969711;28;20090;-50
2021/03/12 03:49:22;;;;;;;28.08;20.10;;;7.50;99.90;;;6.91;91.81;100324.75;4967230;28;20066;-52
2021/03/12 03:51:49;;;;;;;31.52;20.88;;;7.50;99.90;;;6.86;92.01;100319.13;4968218;28;20043;-51
2021/03/12 03:54:16;;;;;;;28.42;20.15;;;7.40;99.90;;;6.83;91.92;100328.91;4968029;28;20039;-49
2021/03/12 03:56:45;;;;;;;30.08;21.08;;;7.40;99.90;;;6.79;91.79;100324.91;4967250;28;20062;-49
2021/03/12 03:59:13;;;;;;;30.25;20.48;;;7.30;99.90;;;6.73;91.78;100331.41;4968719;28;20073;-50
2021/03/12 04:01:39;;;;;;;30.15;20.83;;;7.30;99.90;;;6.67;92.19;100334.47;4963983;28;20447;-48
2021/03/12 04:04:08;;;;;;;27.67;20.05;;;7.20;99.90;;;6.64;92.64;100332.94;4956184;28;20129;-47
2021/03/12 04:06:36;;;;;;;27.52;19.55;;;7.20;99.90;;;6.63;92.99;100340.84;4966073;28;20034;-50
2021/03/12 04:09:04;;;;;;;26.50;19.55;;;7.20;99.90;;;6.67;92.83;100337.06;4963673;28;20103;-49
2021/03/12 04:11:33;;;;;;;25.25;18.55;;;7.20;99.90;;;6.71;92.46;100338.47;4984277;28;20058;-49
2021/03/12 04:14:02;;;;;;;24.45;18.52;;;7.20;99.90;;;6.71;91.87;100335.06;4987800;28;20034;-46
2021/03/12 04:16:29;;;;;;;28.08;19.55;;;7.20;99.90;;;6.68;91.81;100330.94;4988770;28;20177;-51
2021/03/12 04:18:58;;;;;;;26.45;18.92;;;7.20;99.90;;;6.69;91.54;100334.34;4970520;28;20045;-49
2021/03/12 04:21:25;;;;;;;26.88;18.55;;;7.20;99.90;;;6.68;91.53;100333.53;4988611;28;20093;-50
2021/03/12 04:23:53;;;;;;;28.10;18.27;;;7.20;99.90;;;6.65;91.54;100334.59;4970451;28;20034;-52
2021/03/12 04:26:19;;;;;;;25.80;17.90;;;7.20;99.90;;;6.65;91.86;100337.19;4966748;28;20050;-50
2021/03/12 04:28:45;;;;;;;22.65;16.90;;;7.20;99.90;;;6.68;91.58;100336.13;4973470;28;20478;-48
2021/03/12 04:31:12;;;;;;;28.27;18.50;;;7.20;99.90;;;6.69;91.76;100335.19;4992577;28;20034;-49
2021/03/12 04:33:38;;;;;;;25.77;17.65;;;7.20;99.90;;;6.70;91.30;100328.22;4974416;28;20073;-49
2021/03/12 04:36:05;;;;;;;25.50;18.20;;;7.30;99.90;;;6.75;91.58;100334.69;4991233;28;20033;-49
2021/03/12 04:38:32;;;;;;;25.20;16.83;;;7.30;99.90;;;6.81;91.98;100339.38;4991351;28;20137;-47
2021/03/12 04:40:59;;;;;;;26.02;17.80;;;7.30;99.90;;;6.83;91.77;100331.47;4991205;28;20034;-49
2021/03/12 04:43:25;;;;;;;24.02;19.05;;;7.40;99.90;;;6.89;91.41;100341.34;4973869;28;20038;-46
2021/03/12 04:45:51;;;;;;;26.33;17.55;;;7.40;99.90;;;6.87;91.45;100336.28;4974555;28;20121;-45
2021/03/12 04:48:18;;;;;;;27.98;18.65;;;7.40;99.90;;;6.85;91.49;100335.59;4973796;28;20053;-47
2021/03/12 04:50:44;;;;;;;24.60;17.45;;;7.40;99.90;;;6.84;91.39;100328.78;4990115;28;20172;-46
2021/03/12 04:53:11;;;;;;;27.23;18.10;;;7.40;99.90;;;6.87;91.25;100325.94;4991317;28;20026;-45
2021/03/12 04:55:37;;;;;;;25.00;17.30;;;7.40;99.90;;;6.89;91.04;100329.22;4973294;28;20785;-46
2021/03/12 04:58:03;;;;;;;27.50;18.55;;;7.40;99.90;;;6.88;90.91;100334.53;4974256;28;20041;-45
2021/03/12 05:00:31;;;;;;;26.10;18.73;;;7.40;99.90;;;6.89;91.74;100334.41;4991254;28;20035;-44
2021/03/12 05:02:59;;;;;;;28.10;19.90;;;7.40;99.90;;;6.90;91.62;100324.88;4992140;28;20038;-45
2021/03/12 05:05:25;;;;;;;29.65;18.83;;;7.40;99.90;;;6.93;91.49;100325.44;4969488;28;20046;-47
2021/03/12 05:07:53;;;;;;;27.73;19.10;;;7.50;99.90;;;6.96;91.62;100325.19;4954960;28;20026;-46
2021/03/12 05:10:20;;;;;;;27.63;19.38;;;7.50;99.90;;;6.98;91.38;100325.06;4966663;28;20933;-46
2021/03/12 05:12:46;;;;;;;26.65;19.30;;;7.50;99.90;;;6.99;91.97;100329.31;4972447;28;20062;-47
2021/03/12 05:15:12;;;;;;;28.02;19.10;;;7.50;99.90;;;7.01;91.64;100330.00;4971570;28;20094;-46
2021/03/12 05:17:38;;;;;;;33.42;19.98;;;7.50;99.90;;;6.99;91.80;100326.72;4972545;28;20034;-44
2021/03/12 05:20:05;;;;;;;27.90;19.58;;;7.50;99.90;;;7.02;92.21;100338.59;4970532;28;20065;-47
2021/03/12 05:22:31;;;;;;;26.38;19.02;;;7.50;99.90;;;6.98;92.05;100327.66;4972172;28;20118;-48
2021/03/12 05:24:57;;;;;;;26.92;19.27;;;7.60;99.90;;;7.01;92.11;100331.78;4971730;28;20138;-47
2021/03/12 05:27:23;;;;;;;29.45;20.38;;;7.60;99.90;;;6.99;92.78;100337.06;4970889;28;20110;-46
2021/03/12 05:29:48;;;;;;;29.55;19.55;;;7.60;99.90;;;7.01;92.34;100342.97;4971116;28;20053;-50
2021/03/12 05:32:15;;;;;;;27.25;18.17;;;7.60;99.90;;;7.01;92.05;100339.53;4972520;28;20358;-49
2021/03/12 05:34:40;;;;;;;27.05;18.48;;;7.50;99.90;;;6.98;92.41;100336.25;4970295;28;20047;-47
2021/03/12 05:37:06;;;;;;;24.90;18.63;;;7.60;99.90;;;7.03;92.32;100335.06;4972205;28;20361;-46
2021/03/12 05:39:32;;;;;;;26.88;19.48;;;7.60;99.90;;;7.02;92.24;100339.41;4970818;28;20049;-47
2021/03/12 05:41:59;;;;;;;26.50;20.38;;;7.60;99.90;;;7.06;92.18;100333.03;4970375;28;20043;-46
2021/03/12 05:44:25;;;;;;;30.30;19.90;;;7.60;99.90;;;7.08;91.95;100343.28;4969784;28;20054;-50
2021/03/12 05:46:51;;;;;;;28.88;19.10;;;7.60;99.90;;;7.14;92.12;100347.94;4972034;28;20035;-50
2021/03/12 05:49:18;;;;;;;48.70;28.23;;;7.60;99.90;;;7.13;92.05;100343.69;4969688;28;20551;-49
2021/03/12 05:51:45;;;;;;;47.50;29.15;;;7.70;99.90;;;7.12;91.92;100347.25;4990658;28;20027;-46
2021/03/12 05:54:11;;;;;;;37.58;24.65;;;7.70;99.90;;;7.16;92.56;100348.63;4989893;28;20044;-50
2021/03/12 05:56:37;;;;;;;34.17;21.33;;;7.70;99.90;;;7.17;92.26;100345.09;4989412;28;20449;-47
2021/03/12 05:59:04;;;;;;;32.92;20.60;;;7.70;99.90;;;7.19;92.70;100356.16;4972334;28;20030;-50
2021/03/12 06:01:31;;;;;;;34.55;21.50;;;7.70;99.90;;;7.21;92.64;100351.69;4990769;28;20030;-49
2021/03/12 06:03:57;;;;;;;30.35;19.20;;;7.70;99.90;;;7.24;92.44;100354.03;4971937;28;20405;-51
2021/03/12 06:06:23;;;;;;;28.83;20.10;;;7.80;99.90;;;7.24;92.27;100362.63;4990301;28;20039;-48
2021/03/12 06:08:49;;;;;;;30.02;19.65;;;7.80;99.90;;;7.25;92.80;100366.03;4990928;28;20030;-48
2021/03/12 06:11:15;;;;;;;30.20;20.15;;;7.80;99.90;;;7.25;92.46;100368.63;4983973;28;20518;-51
2021/03/12 06:13:56;;;;;;;28.73;20.08;;;7.80;99.90;;;7.31;92.49;100368.13;4989197;28;20544;-48
2021/03/12 06:16:27;;;;;;;28.83;19.27;;;7.80;99.90;;;7.31;92.28;100363.75;4971383;23;20187;-45
2021/03/12 06:19:17;;;;;;;30.77;19.70;;;7.90;99.90;;;7.28;92.26;100369.19;4961274;28;20046;-54
2021/03/12 06:21:48;;;;;;;26.08;17.58;;;7.90;99.90;;;7.29;92.44;100372.59;4965199;28;20047;-47
2021/03/12 06:24:25;;;;;;;317.30;35.78;;;7.90;99.90;;;7.30;92.53;100379.44;4952095;28;20446;-51
2021/03/12 06:26:51;;;;;;;28.80;19.10;;;7.80;99.90;;;7.27;92.54;100377.09;4960537;28;20039;-51
2021/03/12 06:29:17;;;;;;;29.50;17.73;;;7.90;99.90;;;7.26;91.79;100385.81;4949596;28;20042;-47
2021/03/12 06:31:53;;;;;;;25.15;16.20;;;7.80;99.90;;;7.27;91.52;100383.09;4970544;28;20042;-50
2021/03/12 06:34:19;;;;;;;24.77;15.40;;;7.80;99.90;;;7.30;91.01;100382.03;4966192;28;20090;-48
2021/03/12 06:36:45;;;;;;;24.70;16.00;;;7.80;99.90;;;7.33;91.36;100382.59;4949973;28;20510;-49
2021/03/12 06:39:11;;;;;;;21.13;15.25;;;7.80;99.90;;;7.40;91.21;100397.66;4948994;29;20491;-50
2021/03/12 06:41:39;;;;;;;22.90;15.63;;;7.90;99.90;;;7.43;91.04;100381.84;4951350;29;20569;-49
2021/03/12 06:44:43;;;;;;;21.80;15.70;;;7.90;99.90;;;7.47;91.30;100386.66;4969310;28;20269;-49
2021/03/12 06:47:09;;;;;;;22.77;16.30;;;8.00;99.90;;;7.48;90.82;100390.91;4927330;29;20039;-48
2021/03/12 06:49:56;;;;;;;19.20;14.25;;;8.00;99.90;;;7.49;90.75;100391.72;4918597;29;20107;-50
2021/03/12 06:52:36;;;;;;;16.65;13.27;;;8.10;99.90;;;7.48;90.24;100401.25;4920319;29;20059;-48
2021/03/12 06:55:03;;;;;;;18.63;13.43;;;8.00;99.90;;;7.48;90.36;100390.91;4922491;29;20121;-50
2021/03/12 06:57:29;;;;;;;15.52;12.07;;;8.00;99.90;;;7.48;90.17;100401.25;4909915;29;20032;-49
2021/03/12 07:00:07;;;;;;;21.33;14.18;;;8.00;99.90;;;7.49;90.45;100402.91;4910259;29;20036;-48
2021/03/12 07:02:37;;;;;;;19.20;13.75;;;8.00;99.90;;;7.55;90.13;100407.59;4909257;29;20504;-55
2021/03/12 07:05:05;;;;;;;20.08;12.70;;;8.10;99.90;;;7.60;90.14;100400.22;4916829;29;20044;-49
2021/03/12 07:07:42;;;;;;;18.15;12.93;;;8.10;99.90;;;7.61;89.93;100412.25;4923619;29;20050;-49
2021/03/12 07:10:10;;;;;;;19.45;13.30;;;8.20;99.90;;;7.63;89.67;100415.53;4925179;29;20439;-50
2021/03/12 07:12:52;;;;;;;18.77;13.90;;;8.20;99.90;;;7.65;90.19;100418.00;4918393;29;20067;-47
2021/03/12 07:15:20;;;;;;;17.13;12.93;;;8.20;99.90;;;7.66;89.83;100420.47;4924602;29;20052;-45
2021/03/12 07:17:46;;;;;;;19.50;13.55;;;8.20;99.90;;;7.68;89.48;100416.94;4942607;28;20258;-47
2021/03/12 07:20:18;;;;;;;17.05;12.05;;;8.20;99.90;;;7.72;89.48;100431.28;4961813;28;20490;-51
2021/03/12 07:22:47;;;;;;;14.80;11.60;;;8.20;99.90;;;7.75;89.72;100431.84;4969918;28;20055;-51
2021/03/12 07:25:15;;;;;;;16.40;11.93;;;8.20;99.90;;;7.76;89.50;100435.28;4964376;28;20035;-52
2021/03/12 07:27:46;;;;;;;14.73;10.68;;;8.30;99.90;;;7.77;89.39;100437.75;4939978;29;20046;-50
2021/03/12 07:30:15;;;;;;;16.67;11.23;;;8.30;99.90;;;7.77;89.00;100448.13;4966364;28;20113;-50
2021/03/12 07:32:45;;;;;;;15.35;10.57;;;8.30;99.90;;;7.79;89.21;100442.81;4967966;28;20080;-52
2021/03/12 07:35:14;;;;;;;16.38;11.73;;;8.30;99.90;;;7.84;88.92;100448.44;4964434;28;20043;-51
2021/03/12 07:37:42;;;;;;;19.25;12.32;;;8.40;99.90;;;7.86;88.98;100456.91;4969974;28;20038;-52
2021/03/12 07:40:10;;;;;;;15.18;10.80;;;8.40;99.90;;;7.88;89.12;100461.03;4949424;28;20034;-50
2021/03/12 07:42:36;;;;;;;15.27;12.02;;;8.40;99.90;;;7.89;89.31;100461.84;4962415;28;20352;-47
2021/03/12 07:45:03;;;;;;;13.07;10.40;;;8.40;99.90;;;7.90;89.13;100463.50;4969763;28;20058;-52
2021/03/12 07:47:29;;;;;;;18.45;11.95;;;8.40;99.90;;;7.92;89.41;100477.97;4965032;28;20074;-48
2021/03/12 07:49:56;;;;;;;18.85;12.20;;;8.40;99.90;;;7.94;89.19;100485.63;4959441;28;20393;-49
2021/03/12 07:52:52;;;;;;;17.30;11.70;;;8.50;99.90;;;7.92;89.76;100477.97;4960423;28;20050;-51
2021/03/12 07:55:36;;;;;;;17.23;12.27;;;8.50;99.90;;;7.93;89.39;100477.03;4968373;28;20494;-51
2021/03/12 07:58:10;;;;;;;18.25;12.77;;;8.40;99.90;;;7.97;88.96;100483.63;4962386;28;20430;-50
2021/03/12 08:00:57;;;;;;;18.48;11.60;;;8.50;99.90;;;8.06;88.83;100484.59;4966000;28;20572;-49
2021/03/12 08:03:39;;;;;;;16.83;11.45;;;8.50;99.90;;;8.07;89.03;100486.25;4953272;28;20050;-49
2021/03/12 08:06:28;;;;;;;16.85;11.70;;;8.60;99.90;;;8.08;89.10;100497.44;4962754;28;20050;-49
2021/03/12 08:08:54;;;;;;;15.68;11.00;;;8.60;99.90;;;8.08;88.63;100487.06;4962059;28;20035;-49
2021/03/12 08:11:28;;;;;;;15.80;10.57;;;8.60;99.90;;;8.11;88.40;100492.00;4973253;28;20049;-50
2021/03/12 08:14:17;;;;;;;17.00;10.57;;;8.60;99.90;;;8.10;88.67;100482.56;4965680;28;20068;-46
2021/03/12 08:16:57;;;;;;;15.00;9.90;;;8.60;99.90;;;8.13;88.13;100480.53;4961228;28;20063;-51
2021/03/12 08:19:35;;;;;;;18.08;9.50;;;8.60;99.90;;;8.18;87.87;100482.75;4952929;29;20039;-53
2021/03/12 08:22:22;;;;;;;16.70;10.02;;;8.70;99.90;;;8.19;88.15;100480.03;4934701;29;20168;-48
2021/03/12 08:24:52;;;;;;;15.10;9.35;;;8.70;99.90;;;8.22;87.63;100479.78;4951343;29;20114;-46
2021/03/12 08:27:50;;;;;;;17.98;9.63;;;8.70;99.90;;;8.22;87.65;100478.94;4960739;28;20050;-51
2021/03/12 08:30:25;;;;;;;15.38;10.30;;;8.70;99.90;;;8.21;87.56;100485.91;4950609;29;20035;-51
2021/03/12 08:32:57;;;;;;;26.15;16.38;;;8.70;99.90;;;8.27;87.04;100482.00;4963376;28;20054;-51
2021/03/12 08:35:35;;;;;;;20.33;13.52;;;8.80;99.90;;;8.23;87.35;100480.59;4960154;28;20039;-49
2021/03/12 08:38:26;;;;;;;15.70;10.18;;;8.80;99.90;;;8.27;87.07;100487.19;4944765;29;20070;-48
2021/03/12 08:41:02;;;;;;;14.00;8.80;;;8.80;99.90;;;8.30;86.54;100482.56;4952777;29;20039;-47
2021/03/12 08:43:31;;;;;;;12.63;8.38;;;8.80;99.90;;;8.37;86.92;100489.84;4959168;28;20036;-48
2021/03/12 08:46:02;;;;;;;13.93;8.85;;;8.90;99.90;;;8.40;86.76;100484.41;4947543;29;20133;-50
2021/03/12 08:48:34;;;;;;;12.95;9.68;;;8.90;99.90;;;8.42;86.63;100491.13;4955205;28;20070;-47
2021/03/12 08:51:06;;;;;;;11.13;9.35;;;8.90;99.90;;;8.44;86.64;100484.03;4945251;29;20066;-48
2021/03/12 08:53:44;;;;;;;12.88;9.75;;;9.00;99.90;;;8.50;86.71;100477.47;4934435;29;20114;-50
2021/03/12 08:56:10;;;;;;;14.30;10.40;;;9.00;99.90;;;8.56;86.47;100476.94;4951452;28;20042;-51
2021/03/12 08:58:39;;;;;;;16.20;9.80;;;9.00;99.90;;;8.68;86.30;100485.47;4962349;28;20473;-48
2021/03/12 09:01:15;;;;;;;14.48;9.82;;;9.10;99.90;;;8.67;86.13;100476.84;4970584;28;20212;-48
2021/03/12 09:03:48;;;;;;;16.73;10.13;;;9.20;99.90;;;8.68;85.85;100475.88;4965246;28;20042;-49
2021/03/12 09:06:38;;;;;;;11.98;8.50;;;9.20;99.90;;;8.67;86.73;100470.81;4955139;28;20441;-47
2021/03/12 09:09:08;;;;;;;14.30;9.63;;;9.20;99.90;;;8.68;86.18;100475.88;4972083;28;20043;-50
2021/03/12 09:11:34;;;;;;;14.15;9.18;;;9.20;99.90;;;8.75;86.22;100471.81;4962985;28;20121;-47
2021/03/12 09:14:01;;;;;;;12.05;9.32;;;9.30;99.90;;;8.81;85.88;100475.66;4951431;29;20093;-47
2021/03/12 09:16:30;;;;;;;12.85;9.27;;;9.30;99.90;;;8.77;86.24;100469.91;4951260;28;20051;-53
2021/03/12 09:18:57;;;;;;;15.82;9.38;;;9.30;99.90;;;8.75;86.06;100471.81;4957040;28;20031;-48
2021/03/12 09:21:26;;;;;;;13.65;9.27;;;9.30;99.90;;;8.73;86.46;100468.53;4957331;28;20051;-50
2021/03/12 09:24:00;;;;;;;15.85;9.02;;;9.30;99.90;;;8.78;86.09;100476.75;4952429;29;20055;-51
2021/03/12 09:26:33;;;;;;;17.58;9.23;;;9.30;99.90;;;8.78;86.27;100471.56;4952339;29;20038;-52
2021/03/12 09:29:04;;;;;;;12.35;8.90;;;9.30;99.90;;;8.73;86.37;100473.72;4950702;28;20038;-49
2021/03/12 09:31:41;;;;;;;13.77;9.27;;;9.30;99.90;;;8.72;86.35;100473.84;4951212;29;20502;-48
2021/03/12 09:34:13;;;;;;;15.57;9.50;;;9.30;99.90;;;8.67;86.64;100479.44;4949985;28;20042;-53
2021/03/12 09:36:43;;;;;;;16.52;10.15;;;9.20;99.90;;;8.62;86.77;100481.59;4953221;28;20423;-54
2021/03/12 09:39:22;;;;;;;15.07;10.05;;;9.20;99.90;;;8.54;87.11;100474.47;4959888;28;20050;-52
2021/03/12 09:42:00;;;;;;;12.50;10.00;;;9.10;99.90;;;8.49;87.10;100481.84;4952175;29;20518;-50
2021/03/12 09:44:27;;;;;;;18.45;10.68;;;9.10;99.90;;;8.51;86.92;100469.53;4952216;29;20383;-50
2021/03/12 09:46:58;;;;;;;17.83;10.70;;;9.10;99.90;;;8.60;86.53;100473.13;4956900;28;20030;-47
2021/03/12 09:49:29;;;;;;;16.90;11.68;;;9.10;99.90;;;8.59;86.31;100466.28;4971764;28;20034;-54
2021/03/12 09:51:59;;;;;;;17.17;10.70;;;9.10;99.90;;;8.63;86.22;100467.66;4970172;28;20081;-52
2021/03/12 09:54:29;;;;;;;17.08;11.23;;;9.20;99.90;;;8.69;85.77;100461.94;4950269;28;20494;-52
2021/03/12 09:56:57;;;;;;;14.65;10.65;;;9.20;99.90;;;8.86;85.64;100458.72;4969583;28;20510;-49
2021/03/12 09:59:37;;;;;;;12.65;9.43;;;9.30;99.90;;;8.91;85.01;100455.72;4969338;28;20089;-48
2021/03/12 10:02:10;;;;;;;15.13;10.40;;;9.40;99.90;;;8.95;84.96;100465.72;4967305;28;20034;-50
2021/03/12 10:04:41;;;;;;;16.10;10.45;;;9.50;99.90;;;8.99;85.22;100467.06;4936451;29;20043;-51
2021/03/12 10:07:13;;;;;;;18.70;11.13;;;9.50;99.90;;;9.03;84.66;100464.19;4955024;28;20122;-51
2021/03/12 10:09:46;;;;;;;14.77;10.13;;;9.50;99.90;;;9.04;84.58;100465.84;4966880;28;20533;-53
2021/03/12 10:12:24;;;;;;;13.43;9.20;;;9.50;99.90;;;9.05;84.48;100457.91;4968163;28;20499;-52
2021/03/12 10:14:54;;;;;;;14.98;9.40;;;9.60;99.90;;;9.11;84.20;100453.97;4968948;28;20050;-50
2021/03/12 10:17:22;;;;;;;15.75;10.05;;;9.60;99.90;;;9.07;84.41;100455.19;4969307;28;20093;-50
2021/03/12 10:20:20;;;;;;;18.20;10.63;;;9.60;99.90;;;9.18;84.25;100447.25;4970877;28;20037;-51
2021/03/12 10:22:58;;;;;;;16.02;10.02;;;9.70;99.90;;;9.19;83.72;100449.72;4957054;28;20042;-51
2021/03/12 10:25:33;;;;;;;13.05;9.07;;;9.70;99.90;;;9.07;84.25;100450.81;4966198;28;20117;-54
2021/03/12 10:28:20;;;;;;;18.88;10.75;;;9.70;99.90;;;9.09;84.46;100448.06;4970432;28;20081;-53